Time;durP1;ratioP1;P1;durP2;ratioP2;P2;SDS_P1;SDS_P2;PMS_P1;PMS_P2;Temp;Humidity;BMP_temperature;BMP_pressure;BME280_temperature;BME280_humidity;BME280_pressure;Samples;Min_cycle;Max_cycle;Signal;HPM_P1;HPM_P2
2022/10/13 00:00:24;;;;;;;18.20;11.23;;;;;;;9.00;100.00;67778.97;4931451;29;20055;-79
2022/10/13 00:02:49;;;;;;;22.38;10.95;;;;;;;;;;4927904;29;20051;-79
2022/10/13 00:05:15;;;;;;;21.92;11.77;;;;;;;9.06;100.00;67775.13;4930136;29;20039;-79
2022/10/13 00:07:40;;;;;;;20.30;11.35;;;;;;;9.04;100.00;67778.75;4930280;29;20099;-78
2022/10/13 00:10:06;;;;;;;20.05;11.30;;;;;;;9.09;100.00;67783.88;4929640;29;20039;-79
2022/10/13 00:12:36;;;;;;;23.02;12.20;;;;;;;9.11;100.00;67786.13;4931133;29;20407;-78
2022/10/13 00:15:03;;;;;;;17.80;11.65;;;;;;;;;;4932061;29;20063;-80
2022/10/13 00:17:28;;;;;;;22.98;10.82;;;;;;;9.13;100.00;67779.88;4931158;29;20447;-78
2022/10/13 00:19:53;;;;;;;22.85;11.45;;;;;;;;;;4932404;29;20040;-79
2022/10/13 00:22:19;;;;;;;17.73;11.18;;;;;;;9.18;100.00;67793.50;4931598;29;20051;-79
2022/10/13 00:24:48;;;;;;;20.45;11.63;;;;;;;;;;4929168;29;20412;-80
2022/10/13 00:27:14;;;;;;;21.92;10.30;;;;;;;;;;4929075;29;20090;-79
2022/10/13 00:29:39;;;;;;;19.10;11.10;;;;;;;9.28;100.00;67807.47;4931721;29;20135;-79
2022/10/13 00:32:04;;;;;;;17.92;11.07;;;;;;;9.30;99.90;67801.22;4930688;29;20118;-80
2022/10/13 00:34:30;;;;;;;16.58;10.32;;;;;;;9.32;99.77;67811.44;4931103;29;20107;-80
2022/10/13 00:36:55;;;;;;;21.63;11.30;;;;;;;;;;4932637;29;20048;-78
2022/10/13 00:39:20;;;;;;;23.07;11.73;;;;;;;9.36;99.32;67813.34;4931443;29;21669;-78
2022/10/13 00:41:46;;;;;;;18.13;11.73;;;;;;;9.37;100.00;67814.47;4930667;29;20651;-77
2022/10/13 00:44:49;;;;;;;22.42;11.63;;;;;;;9.39;99.78;67811.44;4932323;29;20131;-77
2022/10/13 00:47:14;;;;;;;18.33;11.10;;;;;;;;;;4929378;29;20067;-78
2022/10/13 00:49:39;;;;;;;22.63;11.40;;;;;;;9.42;100.00;67820.13;4932094;29;20071;-77
2022/10/13 00:52:05;;;;;;;19.42;11.30;;;;;;;;;;4926622;29;20048;-78
2022/10/13 00:54:30;;;;;;;21.10;11.23;;;;;;;;;;4930541;29;20047;-78
2022/10/13 00:56:55;;;;;;;19.48;11.25;;;;;;;;;;4924837;29;20040;-78
2022/10/13 00:59:23;;;;;;;23.05;10.68;;;;;;;;;;4930251;29;20476;-78
2022/10/13 01:01:51;;;;;;;21.88;11.27;;;;;;;9.49;100.00;67828.06;4911012;29;20062;-78
2022/10/13 01:04:21;;;;;;;23.40;11.73;;;;;;;9.51;100.00;67829.78;4923179;29;20560;-78
2022/10/13 01:06:47;;;;;;;24.08;11.82;;;;;;;9.53;100.00;67826.72;4924223;29;20407;-78
2022/10/13 01:09:12;;;;;;;19.58;11.43;;;;;;;;;;4923339;29;20094;-78
2022/10/13 01:11:56;;;;;;;21.25;10.93;;;;;;;9.60;100.00;67835.22;4929796;29;20047;-78
2022/10/13 01:14:51;;;;;;;21.55;11.48;;;;;;;9.63;100.00;67838.06;4930638;29;20054;-80
2022/10/13 01:17:17;;;;;;;23.83;12.32;;;;;;;;;;4926474;29;20055;-78
2022/10/13 01:20:04;;;;;;;20.37;11.67;;;;;;;9.66;100.00;67842.03;4928692;29;20067;-78
2022/10/13 01:22:48;;;;;;;23.05;11.10;;;;;;;9.67;100.00;67847.94;4927798;29;20323;-80
2022/10/13 01:25:27;;;;;;;19.58;10.88;;;;;;;;;;4933969;29;20054;-80
2022/10/13 01:28:17;;;;;;;22.50;11.43;;;;;;;9.70;100.00;67854.53;4929012;29;20052;-79
2022/10/13 01:31:01;;;;;;;21.02;11.75;;;;;;;9.71;100.00;67847.69;4913343;29;20136;-80
2022/10/13 01:33:42;;;;;;;19.80;11.10;;;;;;;9.73;100.00;67854.72;4929037;29;20345;-81
2022/10/13 01:36:16;;;;;;;23.73;11.30;;;;;;;9.75;100.00;67856.97;4929189;29;20036;-79
2022/10/13 01:39:11;;;;;;;20.38;12.13;;;;;;;9.78;100.00;67860.41;4913735;29;20051;-79
2022/10/13 01:41:40;;;;;;;20.98;11.63;;;;;;;9.80;100.00;67857.34;4917731;29;20082;-79
2022/10/13 01:44:16;;;;;;;24.35;11.88;;;;;;;9.83;100.00;67860.16;4923097;29;20102;-80
2022/10/13 01:46:44;;;;;;;20.48;12.38;;;;;;;9.85;100.00;67862.44;4894674;29;20423;-82
2022/10/13 01:49:13;;;;;;;19.90;11.20;;;;;;;9.86;100.00;67868.88;4920107;29;20131;-79
2022/10/13 01:51:40;;;;;;;23.38;12.55;;;;;;;9.89;100.00;67874.94;4925307;29;20664;-82
2022/10/13 01:54:05;;;;;;;24.02;12.68;;;;;;;9.91;100.00;67874.56;4929442;29;20040;-81
2022/10/13 01:56:31;;;;;;;21.98;13.10;;;;;;;9.94;100.00;67878.53;4928004;29;20048;-79
2022/10/13 01:59:01;;;;;;;22.80;12.30;;;;;;;9.98;100.00;67882.50;4925218;29;20080;-80
2022/10/13 02:02:03;;;;;;;20.52;12.05;;;;;;;10.02;100.00;67887.03;4930166;29;20102;-78
2022/10/13 02:04:34;;;;;;;22.35;11.98;;;;;;;10.05;100.00;67885.13;4912384;29;20536;-79
2022/10/13 02:07:06;;;;;;;21.27;12.20;;;;;;;;;;4911805;29;20053;-80
2022/10/13 02:09:47;;;;;;;25.58;13.23;;;;;;;10.11;100.00;67891.38;4930154;29;20047;-78
2022/10/13 02:12:24;;;;;;;23.27;12.38;;;;;;;10.13;100.00;67899.53;4923343;29;20404;-80
2022/10/13 02:14:51;;;;;;;23.02;12.85;;;;;;;10.15;100.00;67901.22;4921748;29;20046;-80
2022/10/13 02:17:17;;;;;;;21.88;12.25;;;;;;;;;;4923927;29;20040;-81
2022/10/13 02:19:43;;;;;;;30.30;13.75;;;;;;;10.21;100.00;67908.03;4925096;29;20051;-83
2022/10/13 02:22:12;;;;;;;22.92;13.30;;;;;;;10.26;100.00;67913.13;4914971;29;21045;-80
2022/10/13 02:24:37;;;;;;;22.13;12.52;;;;;;;;;;4929778;29;20044;-79
2022/10/13 02:27:04;;;;;;;21.15;12.30;;;;;;;10.31;100.00;67918.84;4930275;29;20052;-82
2022/10/13 02:29:30;;;;;;;24.35;13.70;;;;;;;10.32;100.00;67919.97;4929071;29;20055;-78
2022/10/13 02:31:55;;;;;;;25.08;13.55;;;;;;;;;;4931586;29;20047;-78
2022/10/13 02:34:21;;;;;;;23.30;12.60;;;;;;;10.36;100.00;67924.50;4928428;29;20047;-83
2022/10/13 02:36:46;;;;;;;24.63;12.95;;;;;;;;;;4927500;29;20336;-78
2022/10/13 02:39:12;;;;;;;26.85;13.20;;;;;;;10.38;100.00;67927.31;4932534;29;20054;-79
2022/10/13 02:41:37;;;;;;;24.20;13.15;;;;;;;;;;4931587;29;20051;-80
2022/10/13 02:44:03;;;;;;;24.08;13.07;;;;;;;;;;4931787;29;20345;-78
2022/10/13 02:46:28;;;;;;;27.08;13.23;;;;;;;10.45;100.00;67928.84;4933645;29;20052;-78
2022/10/13 02:48:53;;;;;;;23.52;12.50;;;;;;;10.44;100.00;67933.56;4936186;29;20123;-78
2022/10/13 02:51:19;;;;;;;22.73;13.00;;;;;;;10.45;100.00;67934.72;4932993;29;20046;-79
2022/10/13 02:53:44;;;;;;;24.83;13.20;;;;;;;10.45;100.00;67929.41;4934899;29;20044;-80
2022/10/13 02:56:09;;;;;;;28.25;13.65;;;;;;;10.45;100.00;67934.72;4937257;29;20467;-78
2022/10/13 02:58:35;;;;;;;28.45;14.07;;;;;;;10.45;100.00;67929.41;4933201;29;20126;-79
2022/10/13 03:01:08;;;;;;;28.08;13.40;;;;;;;;;;4918826;29;20044;-79
2022/10/13 03:03:34;;;;;;;26.58;13.95;;;;;;;10.47;100.00;67937.00;4932701;29;20048;-79
2022/10/13 03:05:59;;;;;;;25.35;13.90;;;;;;;10.47;100.00;67928.44;4933730;29;20038;-78
2022/10/13 03:08:25;;;;;;;23.88;14.07;;;;;;;10.46;100.00;67935.84;4930252;29;20414;-79
2022/10/13 03:10:51;;;;;;;27.50;14.05;;;;;;;;;;4931426;29;20526;-82
2022/10/13 03:13:16;;;;;;;24.77;14.48;;;;;;;10.47;100.00;67931.09;4923974;29;20040;-81
2022/10/13 03:15:41;;;;;;;21.65;12.88;;;;;;;;;;4930205;29;20054;-77
2022/10/13 03:18:07;;;;;;;22.90;14.38;;;;;;;10.45;100.00;67924.06;4925084;29;20039;-81
2022/10/13 03:20:32;;;;;;;21.23;13.45;;;;;;;10.47;100.00;67936.41;4930267;29;20079;-80
2022/10/13 03:22:57;;;;;;;22.08;13.07;;;;;;;;;;4928902;29;20487;-79
2022/10/13 03:25:23;;;;;;;25.57;14.10;;;;;;;10.46;100.00;67935.28;4931327;29;20048;-79
2022/10/13 03:27:48;;;;;;;22.92;13.95;;;;;;;10.46;100.00;67927.88;4926664;29;20307;-78
2022/10/13 03:30:13;;;;;;;25.30;14.48;;;;;;;10.47;100.00;67929.00;4929571;29;20065;-79
2022/10/13 03:32:39;;;;;;;24.60;14.05;;;;;;;10.47;100.00;67936.41;4935032;29;20052;-79
2022/10/13 03:35:05;;;;;;;25.70;14.07;;;;;;;10.45;100.00;67934.72;4931261;29;20384;-77
2022/10/13 03:37:31;;;;;;;24.42;13.40;;;;;;;10.47;100.00;67936.41;4931169;29;20122;-78
2022/10/13 03:39:56;;;;;;;25.88;14.60;;;;;;;10.48;100.00;67938.13;4931533;29;20043;-78
2022/10/13 03:42:22;;;;;;;27.70;14.20;;;;;;;10.48;100.00;67938.13;4930575;29;20103;-79
2022/10/13 03:44:48;;;;;;;29.35;13.50;;;;;;;10.46;100.00;67930.53;4925560;29;20050;-82
2022/10/13 03:47:13;;;;;;;27.58;15.02;;;;;;;10.45;100.00;67929.41;4913116;29;20039;-81
2022/10/13 03:49:39;;;;;;;25.60;14.80;;;;;;;10.46;100.00;67929.97;4933917;29;20526;-79
2022/10/13 03:52:04;;;;;;;25.25;14.23;;;;;;;;;;4929269;29;20086;-81
2022/10/13 03:54:29;;;;;;;25.20;13.98;;;;;;;;;;4929929;29;20056;-79
2022/10/13 03:56:55;;;;;;;25.92;14.32;;;;;;;10.45;100.00;67929.41;4930820;29;20043;-79
2022/10/13 03:59:20;;;;;;;24.70;14.68;;;;;;;10.45;100.00;67929.41;4911232;29;20500;-78
2022/10/13 04:01:45;;;;;;;24.80;13.45;;;;;;;;;;4929966;29;20056;-81
2022/10/13 04:04:11;;;;;;;23.80;14.30;;;;;;;;;;4924743;29;20054;-81
2022/10/13 04:06:36;;;;;;;26.95;14.00;;;;;;;;;;4927780;29;20283;-80
2022/10/13 04:09:02;;;;;;;23.30;13.75;;;;;;;10.45;100.00;67934.16;4929240;29;20100;-80
2022/10/13 04:11:28;;;;;;;30.33;14.60;;;;;;;;;;4925644;29;20046;-78
2022/10/13 04:13:55;;;;;;;24.13;14.05;;;;;;;10.44;100.00;67928.25;4930058;29;20144;-79
2022/10/13 04:16:22;;;;;;;27.67;14.88;;;;;;;;;;4929242;29;20059;-79
2022/10/13 04:19:02;;;;;;;29.55;13.30;;;;;;;10.44;100.00;67933.00;4925522;29;20054;-81
2022/10/13 04:21:31;;;;;;;25.83;14.77;;;;;;;10.43;100.00;67935.09;4928835;29;20075;-80
2022/10/13 04:23:57;;;;;;;28.98;14.23;;;;;;;10.43;100.00;67934.53;4930925;29;20503;-78
2022/10/13 04:26:24;;;;;;;29.17;14.43;;;;;;;10.44;100.00;67927.69;4929149;29;20117;-80
2022/10/13 04:28:51;;;;;;;26.02;14.15;;;;;;;10.46;100.00;67935.28;4927970;29;20048;-78
2022/10/13 04:31:18;;;;;;;26.73;14.93;;;;;;;10.47;100.00;67937.00;4929124;29;20047;-81
2022/10/13 04:33:44;;;;;;;26.17;14.57;;;;;;;10.46;100.00;67935.84;4929276;29;20042;-78
2022/10/13 04:36:11;;;;;;;24.48;14.57;;;;;;;10.47;100.00;67936.41;4922359;29;20448;-79
2022/10/13 04:38:36;;;;;;;24.60;14.48;;;;;;;;;;4927302;29;20336;-79
2022/10/13 04:41:02;;;;;;;29.77;15.23;;;;;;;;;;4919267;29;20500;-78
2022/10/13 04:43:28;;;;;;;28.98;15.45;;;;;;;10.50;100.00;67939.81;4928527;29;20047;-80
2022/10/13 04:45:59;;;;;;;25.30;15.70;;;;;;;;;;4929277;29;20042;-79
2022/10/13 04:48:24;;;;;;;23.70;15.32;;;;;;;;;;4912077;29;20403;-78
2022/10/13 04:51:04;;;;;;;27.63;16.10;;;;;;;10.53;100.00;67943.81;4924608;29;20051;-79
2022/10/13 04:53:30;;;;;;;28.50;15.63;;;;;;;10.53;100.00;67938.47;4910174;29;20703;-80
2022/10/13 04:55:58;;;;;;;29.23;16.00;;;;;;;;;;4928576;29;20050;-79
2022/10/13 04:58:24;;;;;;;30.50;16.03;;;;;;;10.53;100.00;67943.81;4909149;29;20559;-78
2022/10/13 05:00:50;;;;;;;29.77;16.50;;;;;;;10.55;100.00;67945.50;4926265;29;20083;-81
2022/10/13 05:03:15;;;;;;;26.20;16.13;;;;;;;;;;4929172;29;20047;-80
2022/10/13 05:05:41;;;;;;;26.67;14.25;;;;;;;;;;4928293;29;20056;-79
2022/10/13 05:08:06;;;;;;;26.13;15.40;;;;;;;10.56;100.00;67941.31;4924241;29;20069;-79
2022/10/13 05:10:31;;;;;;;27.50;14.57;;;;;;;10.56;100.00;67947.19;4928714;29;20055;-79
2022/10/13 05:12:57;;;;;;;27.75;15.10;;;;;;;10.57;100.00;67948.31;4925831;29;20036;-79
2022/10/13 05:15:22;;;;;;;27.98;14.63;;;;;;;10.59;100.00;67945.28;4928250;29;20099;-81
2022/10/13 05:17:48;;;;;;;24.88;14.30;;;;;;;10.61;100.00;67952.84;4927125;29;20044;-78
2022/10/13 05:20:13;;;;;;;25.52;14.52;;;;;;;10.63;100.00;67954.00;4909345;29;20412;-78
2022/10/13 05:22:38;;;;;;;28.95;15.23;;;;;;;;;;4934883;29;20511;-81
2022/10/13 05:25:03;;;;;;;24.67;15.20;;;;;;;;;;4915269;29;20090;-78
2022/10/13 05:27:29;;;;;;;26.00;15.35;;;;;;;10.68;100.00;67959.69;4911037;29;20304;-78
2022/10/13 05:29:54;;;;;;;30.77;15.50;;;;;;;10.66;100.00;67957.41;4911055;29;20123;-79
2022/10/13 05:32:19;;;;;;;33.65;16.55;;;;;;;;;;4928240;29;20070;-78
2022/10/13 05:34:47;;;;;;;26.35;15.25;;;;;;;10.68;100.00;67954.38;4930387;29;20087;-81
2022/10/13 05:37:15;;;;;;;30.35;16.50;;;;;;;10.68;100.00;67959.69;4927968;29;20431;-78
2022/10/13 05:39:41;;;;;;;28.30;15.35;;;;;;;10.70;100.00;67956.63;4911490;29;20165;-80
2022/10/13 05:42:06;;;;;;;30.98;15.23;;;;;;;10.70;100.00;67956.63;4928907;29;20519;-79
2022/10/13 05:44:32;;;;;;;22.98;14.63;;;;;;;;;;4925594;29;20067;-80
2022/10/13 05:46:57;;;;;;;31.63;16.60;;;;;;;10.74;100.00;67961.16;4933953;29;20044;-80
2022/10/13 05:49:22;;;;;;;27.63;15.35;;;;;;;;;;4924459;29;20245;-78
2022/10/13 05:51:51;;;;;;;28.80;15.35;;;;;;;;;;4929280;29;20082;-79
2022/10/13 05:54:57;;;;;;;24.75;15.55;;;;;;;10.73;100.00;67965.34;4927722;29;20046;-79
2022/10/13 05:57:39;;;;;;;28.50;15.60;;;;;;;10.73;100.00;67960.03;4925773;29;20040;-78
2022/10/13 06:00:12;;;;;;;29.52;15.85;;;;;;;10.73;100.00;67960.03;4928329;29;20054;-79
2022/10/13 06:02:47;;;;;;;29.10;16.15;;;;;;;10.73;100.00;67965.94;4927001;29;20051;-78
2022/10/13 06:05:17;;;;;;;28.58;14.45;;;;;;;;;;4927933;29;20036;-79
2022/10/13 06:07:44;;;;;;;27.25;15.32;;;;;;;;;;4923818;29;20431;-77
2022/10/13 06:10:10;;;;;;;27.10;14.43;;;;;;;10.77;100.00;67970.47;4926875;29;20502;-80
2022/10/13 06:12:36;;;;;;;27.45;15.95;;;;;;;10.78;100.00;67965.69;4920866;29;20511;-77
2022/10/13 06:15:01;;;;;;;29.20;15.60;;;;;;;;;;4927899;29;20054;-77
2022/10/13 06:17:27;;;;;;;30.35;15.80;;;;;;;10.82;100.00;67981.47;4925190;29;20051;-79
2022/10/13 06:19:52;;;;;;;28.00;16.95;;;;;;;10.83;100.00;67976.72;4923724;29;20099;-78
2022/10/13 06:22:17;;;;;;;26.33;16.13;;;;;;;10.86;100.00;67980.09;4927763;29;20048;-77
2022/10/13 06:24:43;;;;;;;26.42;15.20;;;;;;;;;;4929519;29;20039;-78
2022/10/13 06:27:09;;;;;;;28.52;15.88;;;;;;;;;;4911707;29;20135;-77
2022/10/13 06:29:34;;;;;;;26.67;15.07;;;;;;;10.94;100.00;67983.88;4921077;29;20078;-80
2022/10/13 06:32:00;;;;;;;28.70;14.90;;;;;;;;;;4925584;29;20103;-77
2022/10/13 06:34:25;;;;;;;28.15;15.48;;;;;;;10.99;100.00;67989.56;4925331;29;20040;-76
2022/10/13 06:36:51;;;;;;;27.73;15.05;;;;;;;11.01;100.00;67991.81;4927748;29;20126;-77
2022/10/13 06:39:16;;;;;;;26.48;14.50;;;;;;;11.03;100.00;67993.50;4929526;29;20040;-78
2022/10/13 06:41:41;;;;;;;25.90;14.93;;;;;;;11.05;100.00;67993.13;4928757;29;20056;-75
2022/10/13 06:44:07;;;;;;;29.25;15.75;;;;;;;;;;4929860;29;20046;-77
2022/10/13 06:46:32;;;;;;;24.75;14.55;;;;;;;11.10;100.00;68001.44;4927884;29;20050;-77
2022/10/13 06:48:58;;;;;;;30.23;15.70;;;;;;;;;;4927650;29;20443;-76
2022/10/13 06:51:23;;;;;;;31.92;15.27;;;;;;;11.12;100.00;68003.16;4975503;23;20141;-81
2022/10/13 06:53:48;;;;;;;29.75;14.77;;;;;;;;;;4999469;28;20061;-81
2022/10/13 06:56:14;;;;;;;25.20;15.43;;;;;;;11.12;100.00;68003.16;5001552;28;20053;-81
2022/10/13 06:58:39;;;;;;;26.88;15.65;;;;;;;11.13;100.00;68004.28;5003614;28;20282;-81
2022/10/13 07:01:05;;;;;;;26.73;15.00;;;;;;;;;;5001685;28;20560;-81
2022/10/13 07:03:31;;;;;;;28.77;17.08;;;;;;;11.17;100.00;68009.41;4979342;28;20051;-81
2022/10/13 07:06:01;;;;;;;28.85;15.32;;;;;;;11.19;100.00;68011.09;4975867;28;20050;-82
2022/10/13 07:08:26;;;;;;;28.50;15.50;;;;;;;11.20;100.00;68012.81;4972127;28;20042;-81
2022/10/13 07:10:52;;;;;;;29.58;15.65;;;;;;;;;;4961852;28;20043;-81
2022/10/13 07:13:17;;;;;;;28.52;15.13;;;;;;;;;;4972761;28;20517;-81
2022/10/13 07:15:42;;;;;;;24.92;14.95;;;;;;;;;;4973350;28;20421;-81
2022/10/13 07:18:07;;;;;;;30.57;14.90;;;;;;;;;;4977013;28;20049;-82
2022/10/13 07:20:33;;;;;;;26.70;15.10;;;;;;;11.40;100.00;68034.97;4976994;28;20282;-82
2022/10/13 07:22:59;;;;;;;28.50;15.80;;;;;;;;;;4977060;28;20046;-79
2022/10/13 07:25:24;;;;;;;26.08;14.02;;;;;;;11.48;100.00;68049.38;4973032;28;20051;-79
2022/10/13 07:27:50;;;;;;;26.90;14.82;;;;;;;11.50;100.00;68051.06;4979576;28;20038;-81
2022/10/13 07:30:15;;;;;;;28.42;15.80;;;;;;;11.56;100.00;68051.97;4978369;28;20043;-81
2022/10/13 07:32:41;;;;;;;27.27;15.02;;;;;;;11.58;100.00;68060.16;4978024;28;20039;-82
2022/10/13 07:35:10;;;;;;;28.67;15.57;;;;;;;11.61;100.00;68057.66;4979441;28;20047;-82
2022/10/13 07:37:36;;;;;;;23.83;14.52;;;;;;;;;;4952462;28;20093;-82
2022/10/13 07:40:01;;;;;;;30.45;15.68;;;;;;;;;;4975596;28;20493;-81
2022/10/13 07:42:27;;;;;;;25.88;14.60;;;;;;;11.71;100.00;68074.94;4976938;28;20057;-81
2022/10/13 07:44:52;;;;;;;26.20;15.40;;;;;;;11.74;100.00;68077.78;4975158;28;20046;-81
2022/10/13 07:47:17;;;;;;;25.15;15.20;;;;;;;;;;4979611;28;20046;-81
2022/10/13 07:49:42;;;;;;;30.33;16.10;;;;;;;;;;4961689;28;20069;-81
2022/10/13 07:52:08;;;;;;;22.85;14.45;;;;;;;11.82;100.00;68086.84;4953502;28;20294;-80
2022/10/13 07:54:33;;;;;;;27.25;15.95;;;;;;;11.84;100.00;68083.78;4976371;28;20042;-82
2022/10/13 07:56:59;;;;;;;26.67;15.55;;;;;;;11.88;100.00;68088.38;4980916;28;20121;-79
2022/10/13 07:59:24;;;;;;;25.00;14.48;;;;;;;;;;4976482;28;20046;-80
2022/10/13 08:01:50;;;;;;;30.17;15.30;;;;;;;11.98;100.00;68103.91;4982440;28;20067;-80
2022/10/13 08:04:15;;;;;;;27.33;14.48;;;;;;;12.02;100.00;68103.69;4963016;28;20133;-81
2022/10/13 08:06:41;;;;;;;29.10;14.20;;;;;;;;;;4976302;28;20045;-80
2022/10/13 08:09:06;;;;;;;25.80;14.75;;;;;;;;;;4980216;28;20426;-80
2022/10/13 08:11:32;;;;;;;24.60;13.85;;;;;;;12.18;100.00;68121.31;4958572;28;20051;-84
2022/10/13 08:14:00;;;;;;;24.42;13.63;;;;;;;12.22;100.00;68131.19;4972597;28;20498;-80
2022/10/13 08:16:30;;;;;;;28.00;15.00;;;;;;;12.24;100.00;68128.13;4977130;28;20043;-80
2022/10/13 08:18:56;;;;;;;23.90;14.48;;;;;;;12.27;100.00;68128.84;4975198;28;20078;-80
2022/10/13 08:21:22;;;;;;;26.27;14.10;;;;;;;12.28;100.00;68132.66;4978036;28;20039;-80
2022/10/13 08:23:48;;;;;;;24.10;14.18;;;;;;;12.32;100.00;68131.88;4964485;28;20093;-80
2022/10/13 08:26:25;;;;;;;24.77;14.85;;;;;;;12.33;100.00;68135.66;4978391;28;20117;-80
2022/10/13 08:28:51;;;;;;;24.10;14.30;;;;;;;12.36;100.00;68139.06;4975526;28;20050;-81
2022/10/13 08:31:17;;;;;;;30.60;15.73;;;;;;;12.38;100.00;68143.47;4972992;28;20466;-83
2022/10/13 08:33:46;;;;;;;26.35;14.90;;;;;;;;;;4975005;28;20043;-83
2022/10/13 08:36:11;;;;;;;28.08;15.38;;;;;;;;;;4982818;28;20055;-82
2022/10/13 08:38:36;;;;;;;24.77;14.48;;;;;;;12.40;100.00;68145.75;4978215;28;20039;-81
2022/10/13 08:41:11;;;;;;;25.73;14.25;;;;;;;12.42;100.00;68153.34;4979886;28;20398;-82
2022/10/13 08:43:36;;;;;;;25.50;15.13;;;;;;;12.44;100.00;68155.06;4977837;28;20053;-84
2022/10/13 08:46:01;;;;;;;29.45;15.98;;;;;;;;;;4981893;28;20070;-81
2022/10/13 08:48:31;;;;;;;29.27;15.13;;;;;;;12.49;100.00;68155.41;4980669;28;20073;-81
2022/10/13 08:51:00;;;;;;;26.00;14.50;;;;;;;12.53;100.00;68165.28;4979419;28;20057;-81
2022/10/13 08:53:31;;;;;;;27.13;15.50;;;;;;;12.56;100.00;68163.91;4982640;28;20042;-82
2022/10/13 08:55:58;;;;;;;24.02;14.10;;;;;;;;;;4975632;28;20042;-82
2022/10/13 08:58:27;;;;;;;26.27;13.90;;;;;;;;;;4992042;28;20039;-82
2022/10/13 09:01:05;;;;;;;27.45;13.85;;;;;;;;;;4972118;28;20130;-82
2022/10/13 09:03:31;;;;;;;27.27;15.60;;;;;;;;;;4991966;28;20077;-83
2022/10/13 09:06:10;;;;;;;23.13;14.27;;;;;;;;;;4991333;28;20054;-84
2022/10/13 09:08:53;;;;;;;24.17;13.07;;;;;;;12.84;100.00;68194.59;4993413;28;20226;-83
2022/10/13 09:11:18;;;;;;;25.50;13.73;;;;;;;;;;4998130;28;20573;-85
2022/10/13 09:13:44;;;;;;;23.40;13.82;;;;;;;12.91;99.98;68202.00;4995579;28;20049;-82
2022/10/13 09:16:09;;;;;;;26.27;13.60;;;;;;;12.88;99.99;68199.72;4989515;28;20050;-84
2022/10/13 09:18:36;;;;;;;21.88;13.07;;;;;;;12.90;99.73;68200.88;4992718;28;20035;-83
2022/10/13 09:21:08;;;;;;;23.25;14.07;;;;;;;;;;4997629;28;20038;-83
2022/10/13 09:23:35;;;;;;;25.48;14.23;;;;;;;;;;4960500;28;20050;-81
2022/10/13 09:26:07;;;;;;;24.38;14.02;;;;;;;12.93;99.33;68210.19;4971008;28;20057;-82
2022/10/13 09:28:33;;;;;;;22.88;12.65;;;;;;;12.93;99.35;68209.63;4978000;28;20042;-82
2022/10/13 09:31:14;;;;;;;26.85;13.95;;;;;;;12.93;99.22;68204.84;4976863;28;20717;-82
2022/10/13 09:33:39;;;;;;;23.88;13.38;;;;;;;;;;4978919;28;20043;-82
2022/10/13 09:36:06;;;;;;;23.00;13.02;;;;;;;;;;4977982;28;20110;-82
2022/10/13 09:38:32;;;;;;;23.15;13.48;;;;;;;;;;4972032;28;20379;-82
2022/10/13 09:41:00;;;;;;;20.75;12.15;;;;;;;;;;4977319;28;20473;-81
2022/10/13 09:43:25;;;;;;;18.23;12.50;;;;;;;;;;4977639;28;20038;-82
2022/10/13 09:45:52;;;;;;;25.05;12.57;;;;;;;13.02;99.31;68214.50;4977844;28;20572;-81
2022/10/13 09:48:22;;;;;;;22.00;13.00;;;;;;;13.05;99.11;68217.91;4972563;28;20494;-82
2022/10/13 09:50:50;;;;;;;23.05;12.75;;;;;;;13.08;99.23;68218.66;4973634;28;20046;-82
2022/10/13 09:53:32;;;;;;;23.38;12.85;;;;;;;13.09;98.86;68222.47;4977619;28;20045;-82
2022/10/13 09:56:14;;;;;;;21.50;12.85;;;;;;;13.07;98.50;68217.53;4970402;28;20046;-82
2022/10/13 09:59:25;;;;;;;23.17;12.10;;;;;;;13.08;98.46;68221.88;4974445;28;20046;-82
2022/10/13 10:01:51;;;;;;;25.05;12.93;;;;;;;;;;4974786;28;20053;-81
2022/10/13 10:04:21;;;;;;;25.80;14.48;;;;;;;;;;4978571;28;20050;-82
2022/10/13 10:06:46;;;;;;;24.73;13.73;;;;;;;;;;4978005;28;20129;-82
2022/10/13 10:09:32;;;;;;;22.23;13.73;;;;;;;;;;4977140;28;20117;-82
2022/10/13 10:11:59;;;;;;;24.00;12.88;;;;;;;13.31;97.63;68247.50;4978543;28;20065;-81
2022/10/13 10:14:27;;;;;;;23.58;13.30;;;;;;;;;;4972270;28;20517;-82
2022/10/13 10:17:29;;;;;;;22.83;12.63;;;;;;;13.45;97.44;68268.19;4975542;28;20081;-82
2022/10/13 10:20:13;;;;;;;22.35;12.63;;;;;;;;;;4944738;28;20046;-82
2022/10/13 10:22:47;;;;;;;24.38;12.90;;;;;;;;;;4978217;28;20078;-82
2022/10/13 10:25:18;;;;;;;23.92;14.15;;;;;;;13.60;96.75;68278.78;4976407;28;20078;-82
2022/10/13 10:28:09;;;;;;;21.38;13.07;;;;;;;13.68;96.69;68287.88;4979398;28;20042;-82
2022/10/13 10:30:45;;;;;;;22.35;13.07;;;;;;;13.77;96.60;68296.00;4979833;28;20452;-82
2022/10/13 10:33:17;;;;;;;19.88;11.60;;;;;;;13.83;96.11;68309.72;4970299;28;20039;-82
2022/10/13 10:36:01;;;;;;;23.65;12.98;;;;;;;13.89;95.42;68311.19;4965010;28;20050;-81
2022/10/13 10:38:33;;;;;;;22.33;12.23;;;;;;;13.94;95.47;68322.25;4976266;28;20520;-82
2022/10/13 10:41:11;;;;;;;25.52;13.60;;;;;;;14.03;95.73;68326.56;4982571;28;20686;-81
2022/10/13 10:43:37;;;;;;;25.52;13.93;;;;;;;;;;4975511;28;20046;-82
2022/10/13 10:46:13;;;;;;;22.67;12.07;;;;;;;14.10;94.92;68340.47;4979264;28;20109;-82
2022/10/13 10:48:39;;;;;;;22.83;12.25;;;;;;;14.17;94.75;68347.84;4975504;28;20449;-81
2022/10/13 10:51:07;;;;;;;24.50;13.00;;;;;;;14.22;94.42;68346.06;4977598;28;20043;-82
2022/10/13 10:53:35;;;;;;;20.23;11.55;;;;;;;;;;4984148;28;20046;-82
2022/10/13 10:56:03;;;;;;;19.43;12.80;;;;;;;;;;4978074;28;20054;-82
2022/10/13 10:58:38;;;;;;;21.95;11.88;;;;;;;14.47;94.61;68376.06;4984126;28;20049;-82
2022/10/13 11:01:21;;;;;;;19.95;10.43;;;;;;;14.56;93.75;68386.34;4981677;28;20046;-81
2022/10/13 11:03:46;;;;;;;16.38;10.32;;;;;;;;;;4983192;28;20038;-82
2022/10/13 11:06:12;;;;;;;21.63;10.93;;;;;;;14.80;93.36;68413.09;4979671;28;20129;-82
2022/10/13 11:08:37;;;;;;;16.48;10.15;;;;;;;14.95;92.65;68429.03;4961867;28;20046;-82
2022/10/13 11:11:21;;;;;;;17.48;10.65;;;;;;;;;;4975274;28;20042;-82
2022/10/13 11:14:18;;;;;;;21.10;10.48;;;;;;;;;;4986618;28;20073;-82
2022/10/13 11:17:02;;;;;;;17.50;9.45;;;;;;;;;;4990241;28;20533;-83
2022/10/13 11:19:35;;;;;;;19.30;9.98;;;;;;;;;;4978657;28;20453;-83
2022/10/13 11:22:00;;;;;;;19.60;10.27;;;;;;;;;;4980780;28;20619;-82
2022/10/13 11:24:40;;;;;;;13.77;9.40;;;;;;;15.30;90.38;68468.31;4977446;28;20102;-82
2022/10/13 11:27:14;;;;;;;19.48;9.52;;;;;;;15.35;91.14;68474.59;4978333;28;20289;-82
2022/10/13 11:29:43;;;;;;;18.95;9.82;;;;;;;15.32;89.83;68470.59;4991238;28;20053;-81
2022/10/13 11:32:24;;;;;;;14.73;9.60;;;;;;;;;;5000727;28;20786;-81
2022/10/13 11:35:16;;;;;;;17.55;9.70;;;;;;;15.37;90.30;68475.75;5000160;28;20047;-81
2022/10/13 11:37:52;;;;;;;19.02;10.55;;;;;;;15.37;90.18;68475.75;4997773;28;20114;-83
2022/10/13 11:40:27;;;;;;;16.52;9.77;;;;;;;15.37;89.48;68470.94;4979525;28;20043;-83
2022/10/13 11:43:01;;;;;;;20.35;9.70;;;;;;;;;;4978604;28;20125;-81
2022/10/13 11:45:29;;;;;;;18.30;10.45;;;;;;;15.34;89.28;68470.22;4979727;28;20102;-82
2022/10/13 11:48:05;;;;;;;19.58;10.02;;;;;;;;;;4966135;28;20047;-81
2022/10/13 11:50:55;;;;;;;19.92;11.32;;;;;;;15.30;89.31;68468.31;4979180;28;20038;-81
2022/10/13 11:53:30;;;;;;;16.15;9.85;;;;;;;15.30;89.56;68468.88;4978869;28;20521;-82
2022/10/13 11:55:57;;;;;;;21.77;10.82;;;;;;;;;;4983469;28;20133;-81
2022/10/13 11:58:25;;;;;;;18.08;10.50;;;;;;;15.33;89.51;68466.38;4980782;28;20109;-81
2022/10/13 12:00:58;;;;;;;17.15;10.07;;;;;;;15.29;89.34;68472.56;4983927;28;20073;-81
2022/10/13 12:03:30;;;;;;;20.50;11.68;;;;;;;15.30;89.54;68465.63;4980279;28;20120;-82
2022/10/13 12:06:06;;;;;;;20.42;11.20;;;;;;;15.24;88.88;68458.81;4967562;28;20046;-83
2022/10/13 12:08:34;;;;;;;20.65;12.27;;;;;;;15.24;89.24;68466.84;4975664;28;20035;-81
2022/10/13 12:11:03;;;;;;;22.25;11.82;;;;;;;15.21;89.77;68458.06;4980866;28;20042;-82
2022/10/13 12:13:28;;;;;;;;;;;;;;;;;;4981832;28;20050;-81
2022/10/13 12:16:04;;;;;;;20.33;12.00;;;;;;;15.08;91.68;68443.84;4977198;28;19918;-81
2022/10/13 12:18:36;;;;;;;21.83;11.68;;;;;;;15.00;92.29;68429.94;4978975;28;20078;-80